Time;durP1;ratioP1;P1;durP2;ratioP2;P2;SDS_P1;SDS_P2;PMS_P1;PMS_P2;Temp;Humidity;BMP_temperature;BMP_pressure;BME280_temperature;BME280_humidity;BME280_pressure;Samples;Min_cycle;Max_cycle;Signal;HPM_P1;HPM_P2
2023/08/15 00:00:19;;;;;;;3.65;1.83;;;21.50;99.40;;;;;;5031148;28;20537;-77
2023/08/15 00:02:44;;;;;;;4.32;2.20;;;21.60;99.20;;;;;;5031138;28;20026;-77
2023/08/15 00:05:10;;;;;;;7.00;2.25;;;21.60;99.10;;;;;;5030814;28;20025;-77
2023/08/15 00:07:36;;;;;;;4.82;1.63;;;21.60;99.00;;;;;;5028527;28;20447;-77
2023/08/15 00:10:01;;;;;;;4.63;1.52;;;21.70;99.00;;;;;;5030722;28;20040;-77
2023/08/15 00:12:27;;;;;;;11.10;1.73;;;21.60;99.10;;;;;;5029029;28;20124;-77
2023/08/15 00:14:53;;;;;;;7.28;2.28;;;21.60;99.20;;;;;;5029543;28;20048;-78
2023/08/15 00:17:18;;;;;;;7.85;1.85;;;21.60;99.10;;;;;;5030862;28;20158;-77
2023/08/15 00:19:44;;;;;;;3.10;1.73;;;21.60;99.00;;;;;;5029285;28;20499;-77
2023/08/15 00:22:10;;;;;;;8.77;2.00;;;21.60;99.00;;;;;;5030756;28;20029;-74
2023/08/15 00:24:35;;;;;;;10.68;2.60;;;21.60;98.90;;;;;;5030656;28;20127;-77
2023/08/15 00:27:01;;;;;;;5.32;1.58;;;21.70;99.00;;;;;;5029433;28;20021;-76
2023/08/15 00:29:27;;;;;;;3.63;1.45;;;21.70;98.90;;;;;;5028996;28;20025;-77
2023/08/15 00:31:52;;;;;;;2.60;1.80;;;21.70;99.40;;;;;;5030361;28;20104;-78
2023/08/15 00:34:18;;;;;;;5.15;2.30;;;21.60;99.80;;;;;;5029051;28;20120;-78
2023/08/15 00:36:43;;;;;;;6.00;1.80;;;21.60;99.90;;;;;;5029321;28;20112;-80
2023/08/15 00:39:09;;;;;;;3.70;1.60;;;21.60;99.70;;;;;;5029959;28;20040;-78
2023/08/15 00:41:35;;;;;;;3.47;1.58;;;21.60;99.90;;;;;;5028805;28;20041;-80
2023/08/15 00:44:01;;;;;;;8.50;1.95;;;21.50;99.70;;;;;;5030233;28;20367;-79
2023/08/15 00:46:28;;;;;;;3.92;1.58;;;21.60;99.30;;;;;;5030077;28;20036;-79
2023/08/15 00:48:54;;;;;;;5.65;1.65;;;21.60;99.30;;;;;;5028618;28;20033;-80
2023/08/15 00:51:20;;;;;;;8.70;1.58;;;21.60;99.40;;;;;;5028695;28;20493;-81
2023/08/15 00:53:47;;;;;;;7.15;1.67;;;21.60;99.10;;;;;;5030149;28;20068;-81
2023/08/15 00:56:14;;;;;;;4.78;1.98;;;21.60;99.30;;;;;;5028906;28;20029;-81
2023/08/15 00:58:41;;;;;;;5.03;1.65;;;21.50;99.60;;;;;;5028719;28;20124;-81
2023/08/15 01:01:14;;;;;;;3.05;1.77;;;21.50;99.40;;;;;;5029884;28;20033;-81
2023/08/15 01:03:41;;;;;;;5.20;1.65;;;21.40;99.60;;;;;;5028545;28;20036;-81
2023/08/15 01:06:06;;;;;;;4.53;1.80;;;21.40;99.70;;;;;;5029544;28;20048;-81
2023/08/15 01:08:33;;;;;;;6.85;1.92;;;21.30;99.90;;;;;;5029833;28;20021;-81
2023/08/15 01:11:00;;;;;;;7.25;1.60;;;21.30;99.90;;;;;;5027632;28;20029;-80
2023/08/15 01:13:48;;;;;;;7.68;1.75;;;21.30;99.90;;;;;;5029347;28;20143;-79
2023/08/15 01:16:22;;;;;;;2.67;1.23;;;21.20;99.90;;;;;;5029655;28;20063;-78
2023/08/15 01:19:17;;;;;;;4.43;1.83;;;21.20;99.90;;;;;;5027632;28;20498;-79
2023/08/15 01:21:47;;;;;;;5.13;2.28;;;21.20;99.90;;;;;;5026808;28;20045;-79
2023/08/15 01:24:14;;;;;;;10.13;2.25;;;21.10;99.90;;;;;;5029464;28;20026;-79
2023/08/15 01:26:39;;;;;;;7.57;1.70;;;21.10;99.90;;;;;;5028102;28;20029;-79
2023/08/15 01:29:06;;;;;;;3.45;1.63;;;21.10;99.90;;;;;;5029324;28;20030;-79
2023/08/15 01:31:39;;;;;;;4.15;1.73;;;21.10;99.90;;;;;;5028147;28;20033;-79
2023/08/15 01:34:33;;;;;;;3.42;1.92;;;21.20;99.90;;;;;;5030122;28;20053;-79
2023/08/15 01:37:08;;;;;;;4.75;2.55;;;21.10;99.90;;;;;;5028239;28;20494;-79
2023/08/15 01:39:36;;;;;;;3.05;1.50;;;21.10;99.90;;;;;;5029552;28;20375;-79
2023/08/15 01:42:03;;;;;;;5.82;1.70;;;21.10;99.90;;;;;;5028124;28;20494;-79
2023/08/15 01:44:31;;;;;;;3.58;2.00;;;21.10;99.90;;;;;;5029467;28;20034;-79
2023/08/15 01:46:57;;;;;;;7.88;2.10;;;21.10;99.90;;;;;;5029310;28;20024;-79
2023/08/15 01:49:23;;;;;;;10.48;2.13;;;21.10;99.90;;;;;;5027798;28;20111;-80
2023/08/15 01:51:51;;;;;;;2.65;1.95;;;21.10;99.90;;;;;;5029168;28;20025;-80
2023/08/15 01:54:16;;;;;;;8.73;2.08;;;21.20;99.90;;;;;;5028003;28;20033;-78
2023/08/15 01:56:42;;;;;;;2.92;1.63;;;21.20;99.90;;;;;;5028050;28;20026;-79
2023/08/15 01:59:08;;;;;;;4.50;2.00;;;21.20;99.60;;;;;;5030825;28;20065;-77
2023/08/15 02:01:34;;;;;;;5.70;1.58;;;21.30;98.90;;;;;;5028891;28;20603;-79
2023/08/15 02:03:59;;;;;;;7.72;1.67;;;21.40;98.40;;;;;;5029069;28;20030;-80
2023/08/15 02:06:25;;;;;;;2.95;1.67;;;21.40;98.20;;;;;;5027784;28;20029;-80
2023/08/15 02:08:51;;;;;;;6.45;1.65;;;21.50;97.60;;;;;;5027835;28;20662;-80
2023/08/15 02:11:16;;;;;;;5.88;1.63;;;21.50;96.80;;;;;;5029100;28;20025;-79
2023/08/15 02:13:42;;;;;;;3.10;1.52;;;21.60;96.40;;;;;;5029209;28;20057;-79
2023/08/15 02:16:07;;;;;;;6.78;1.92;;;21.60;95.80;;;;;;5028525;28;20030;-79
2023/08/15 02:18:33;;;;;;;5.75;1.95;;;21.60;95.60;;;;;;5039707;28;20028;-79
2023/08/15 02:20:59;;;;;;;9.57;1.42;;;21.60;95.80;;;;;;5048555;28;20044;-79
2023/08/15 02:23:24;;;;;;;8.13;1.48;;;21.60;95.90;;;;;;5047243;28;20025;-79
2023/08/15 02:25:50;;;;;;;2.10;1.25;;;21.60;95.90;;;;;;5047367;28;20037;-79
2023/08/15 02:28:16;;;;;;;3.35;1.90;;;21.50;96.10;;;;;;5047586;28;20444;-80
2023/08/15 02:30:42;;;;;;;2.88;1.75;;;21.40;96.40;;;;;;5047814;28;20463;-79
2023/08/15 02:33:08;;;;;;;3.33;1.45;;;21.30;96.80;;;;;;5052356;28;20028;-80
2023/08/15 02:35:37;;;;;;;3.72;1.60;;;21.30;96.80;;;;;;5051162;28;20025;-76
2023/08/15 02:38:03;;;;;;;3.05;1.58;;;21.20;97.10;;;;;;5051347;28;20048;-77
2023/08/15 02:40:29;;;;;;;2.70;1.52;;;21.20;97.00;;;;;;5052551;28;20501;-77
2023/08/15 02:42:55;;;;;;;4.50;2.05;;;21.20;96.20;;;;;;5052059;28;20477;-77
2023/08/15 02:45:21;;;;;;;3.53;1.70;;;21.40;95.90;;;;;;5052344;28;20112;-77
2023/08/15 02:47:46;;;;;;;2.33;1.30;;;21.40;96.00;;;;;;5052362;28;20036;-79
2023/08/15 02:50:12;;;;;;;3.95;1.52;;;21.50;95.80;;;;;;5052104;28;20480;-79
2023/08/15 02:52:38;;;;;;;5.75;1.60;;;21.50;95.40;;;;;;5052010;28;20387;-80
2023/08/15 02:55:04;;;;;;;4.60;1.40;;;21.50;95.40;;;;;;5051990;28;20032;-79
2023/08/15 02:57:30;;;;;;;3.25;1.80;;;21.50;95.70;;;;;;5050662;28;20033;-80
2023/08/15 02:59:56;;;;;;;7.05;1.50;;;21.40;95.80;;;;;;5050261;28;20037;-79
2023/08/15 03:02:22;;;;;;;4.65;1.45;;;21.40;95.70;;;;;;5050625;28;20086;-80
2023/08/15 03:04:48;;;;;;;5.00;1.60;;;21.40;95.90;;;;;;5051882;28;20021;-79
2023/08/15 03:07:14;;;;;;;5.22;1.58;;;21.30;95.90;;;;;;5051595;28;20073;-79
2023/08/15 03:09:39;;;;;;;3.53;1.45;;;21.20;96.00;;;;;;5050428;28;20509;-79
2023/08/15 03:12:05;;;;;;;4.35;1.50;;;21.20;96.10;;;;;;5050117;28;20478;-79
2023/08/15 03:14:31;;;;;;;4.72;1.20;;;21.10;96.30;;;;;;5051651;28;20037;-79
2023/08/15 03:16:57;;;;;;;7.53;1.40;;;21.10;96.30;;;;;;5051564;28;20032;-79
2023/08/15 03:19:22;;;;;;;3.22;1.35;;;21.10;96.30;;;;;;5051430;28;20082;-80
2023/08/15 03:21:48;;;;;;;2.72;1.58;;;21.00;96.00;;;;;;5050161;28;20086;-80
2023/08/15 03:24:15;;;;;;;9.48;1.35;;;21.00;96.20;;;;;;5051330;28;20092;-79
2023/08/15 03:26:42;;;;;;;8.93;1.58;;;21.10;95.70;;;;;;5051391;28;20025;-78
2023/08/15 03:29:07;;;;;;;4.40;1.85;;;21.00;95.80;;;;;;5051269;28;20079;-78
2023/08/15 03:31:33;;;;;;;3.80;2.03;;;21.00;95.90;;;;;;5051302;28;20033;-79
2023/08/15 03:33:59;;;;;;;2.70;1.60;;;21.00;96.10;;;;;;5051164;28;20494;-79
2023/08/15 03:36:25;;;;;;;4.13;1.50;;;21.00;96.20;;;;;;5049775;28;20039;-79
2023/08/15 03:38:52;;;;;;;2.60;1.42;;;21.00;95.90;;;;;;5050995;28;20021;-79
2023/08/15 03:41:18;;;;;;;3.97;1.48;;;21.10;95.80;;;;;;5050967;28;20091;-79
2023/08/15 03:43:44;;;;;;;3.05;1.35;;;21.10;95.70;;;;;;5049553;28;20056;-79
2023/08/15 03:46:10;;;;;;;6.70;1.50;;;21.10;95.80;;;;;;5051010;28;20129;-79
2023/08/15 03:48:36;;;;;;;4.03;1.33;;;21.10;95.90;;;;;;5050183;28;20025;-79
2023/08/15 03:51:02;;;;;;;6.05;1.60;;;21.00;95.80;;;;;;5049775;28;20645;-78
2023/08/15 03:53:28;;;;;;;3.35;1.45;;;21.00;95.80;;;;;;5050922;28;20059;-79
2023/08/15 03:55:54;;;;;;;4.63;1.77;;;21.00;95.70;;;;;;5050797;28;20496;-79
2023/08/15 03:58:21;;;;;;;3.42;1.23;;;21.00;95.80;;;;;;5050784;28;20029;-79
2023/08/15 04:00:48;;;;;;;5.97;1.90;;;21.00;96.00;;;;;;5050473;28;20045;-78
2023/08/15 04:03:14;;;;;;;6.40;1.60;;;21.00;96.30;;;;;;5050686;28;20032;-79
2023/08/15 04:05:44;;;;;;;8.75;1.52;;;21.00;96.50;;;;;;5050703;28;20035;-79
2023/08/15 04:08:10;;;;;;;3.03;1.60;;;20.90;96.50;;;;;;5050594;28;20017;-79
2023/08/15 04:10:39;;;;;;;2.75;1.52;;;21.00;96.60;;;;;;5050511;28;20128;-79
2023/08/15 04:13:07;;;;;;;2.78;1.45;;;21.00;96.80;;;;;;5049041;28;20053;-78
2023/08/15 04:15:34;;;;;;;4.57;1.73;;;21.00;96.70;;;;;;5049125;28;20029;-79
2023/08/15 04:18:01;;;;;;;4.03;1.98;;;21.10;96.70;;;;;;5050492;28;20025;-78
2023/08/15 04:20:26;;;;;;;2.67;1.63;;;21.10;96.70;;;;;;5050215;28;20041;-79
2023/08/15 04:22:52;;;;;;;5.10;1.58;;;21.10;96.70;;;;;;5050307;28;20079;-78
2023/08/15 04:25:17;;;;;;;4.90;1.95;;;21.20;96.80;;;;;;5050249;28;20037;-78
2023/08/15 04:27:43;;;;;;;3.72;1.38;;;21.20;97.10;;;;;;5050272;28;20473;-77
2023/08/15 04:30:09;;;;;;;4.93;2.25;;;21.30;97.30;;;;;;5050325;28;20048;-78
2023/08/15 04:32:35;;;;;;;9.38;1.50;;;21.30;97.40;;;;;;5050200;28;20060;-77
2023/08/15 04:35:00;;;;;;;5.30;2.10;;;21.30;97.80;;;;;;5050091;28;20040;-76
2023/08/15 04:37:26;;;;;;;3.40;1.80;;;21.30;97.40;;;;;;5050068;28;20025;-78
2023/08/15 04:39:52;;;;;;;5.82;2.45;;;21.40;97.70;;;;;;5049834;28;20072;-78
2023/08/15 04:42:17;;;;;;;7.05;1.67;;;21.40;97.70;;;;;;5050092;28;20405;-78
2023/08/15 04:44:43;;;;;;;3.88;1.58;;;21.50;97.80;;;;;;5049855;28;20543;-77
2023/08/15 04:47:09;;;;;;;2.25;1.60;;;21.60;97.70;;;;;;5049964;28;20032;-78
2023/08/15 04:49:34;;;;;;;9.73;1.50;;;21.70;97.40;;;;;;5049951;28;20029;-77
2023/08/15 04:52:00;;;;;;;3.50;1.63;;;21.70;97.20;;;;;;5048414;28;20090;-77
2023/08/15 04:54:27;;;;;;;10.15;2.28;;;21.80;97.30;;;;;;5048978;28;20025;-77
2023/08/15 04:56:53;;;;;;;2.55;1.38;;;21.90;97.20;;;;;;5049842;28;20509;-79
2023/08/15 04:59:18;;;;;;;5.18;1.60;;;22.00;97.10;;;;;;5048281;28;20443;-78
2023/08/15 05:01:45;;;;;;;5.07;1.63;;;22.10;96.80;;;;;;5049629;28;20024;-78
2023/08/15 05:04:10;;;;;;;4.30;1.55;;;22.20;96.50;;;;;;5049804;28;20025;-78
2023/08/15 05:06:36;;;;;;;6.35;1.83;;;22.30;96.30;;;;;;5049628;28;20033;-78
2023/08/15 05:09:02;;;;;;;3.80;1.77;;;22.50;96.30;;;;;;5049601;28;20139;-78
2023/08/15 05:11:27;;;;;;;4.82;2.55;;;22.60;96.10;;;;;;5048103;28;20710;-78
2023/08/15 05:13:53;;;;;;;2.78;1.85;;;22.80;96.00;;;;;;5049219;28;20842;-78
2023/08/15 05:16:18;;;;;;;5.60;1.75;;;22.90;95.70;;;;;;5048161;28;20828;-79
2023/08/15 05:18:44;;;;;;;5.85;1.70;;;23.10;96.00;;;;;;5048191;28;20021;-79
2023/08/15 05:21:10;;;;;;;6.80;2.83;;;23.30;95.50;;;;;;5048098;28;20405;-79
2023/08/15 05:23:35;;;;;;;14.88;3.30;;;23.40;94.60;;;;;;5049697;28;20151;-79
2023/08/15 05:26:01;;;;;;;8.50;2.60;;;23.60;94.10;;;;;;5049673;28;20112;-79
2023/08/15 05:28:26;;;;;;;7.25;2.58;;;23.90;94.10;;;;;;5047865;28;20017;-80
2023/08/15 05:30:53;;;;;;;8.38;1.77;;;24.20;93.30;;;;;;5048146;28;20029;-79
2023/08/15 05:33:18;;;;;;;9.02;2.03;;;24.50;92.50;;;;;;5049472;28;20024;-79
2023/08/15 05:35:44;;;;;;;20.15;3.88;;;24.90;92.50;;;;;;5049364;28;20032;-78
2023/08/15 05:38:10;;;;;;;7.50;2.63;;;25.10;91.70;;;;;;5049372;28;20032;-79
2023/08/15 05:40:35;;;;;;;4.00;1.98;;;25.50;91.20;;;;;;5047826;28;20409;-79
2023/08/15 05:43:01;;;;;;;10.25;1.90;;;25.80;90.70;;;;;;5047974;28;20485;-79
2023/08/15 05:45:27;;;;;;;4.50;1.85;;;26.10;90.40;;;;;;5049206;28;20028;-79
2023/08/15 05:47:52;;;;;;;3.80;1.88;;;26.50;89.80;;;;;;5048947;28;20048;-79
2023/08/15 05:50:18;;;;;;;5.03;1.30;;;27.00;88.00;;;;;;5047696;28;20104;-79
2023/08/15 05:52:43;;;;;;;10.05;2.65;;;27.60;84.30;;;;;;5049121;28;20052;-80
2023/08/15 05:55:09;;;;;;;3.17;1.48;;;28.20;82.40;;;;;;5047882;28;20021;-80
2023/08/15 05:57:35;;;;;;;4.25;1.55;;;28.70;76.70;;;;;;5048992;28;20025;-80
2023/08/15 06:00:00;;;;;;;5.32;1.60;;;29.20;73.60;;;;;;5047438;28;20036;-79
2023/08/15 06:02:26;;;;;;;10.73;1.80;;;29.60;69.50;;;;;;5048910;28;20067;-80
2023/08/15 06:04:51;;;;;;;3.60;2.28;;;30.20;67.70;;;;;;5048436;28;20174;-81
2023/08/15 06:07:17;;;;;;;6.43;2.00;;;30.70;65.40;;;;;;5052949;28;20103;-79
2023/08/15 06:09:43;;;;;;;6.75;2.50;;;31.10;63.20;;;;;;5051492;28;20029;-80
2023/08/15 06:12:09;;;;;;;8.85;2.40;;;31.60;61.80;;;;;;5052250;28;20029;-80
2023/08/15 06:14:38;;;;;;;5.38;1.92;;;31.80;60.90;;;;;;5051354;28;20579;-80
2023/08/15 06:17:05;;;;;;;8.77;1.95;;;32.10;58.90;;;;;;5052660;28;20028;-80
2023/08/15 06:19:30;;;;;;;6.07;1.90;;;32.50;57.90;;;;;;5052598;28;20055;-80
2023/08/15 06:21:56;;;;;;;5.22;1.85;;;33.20;54.60;;;;;;5052623;28;20391;-80
2023/08/15 06:24:21;;;;;;;5.07;1.52;;;33.60;52.80;;;;;;5051273;28;20043;-81
2023/08/15 06:26:47;;;;;;;11.77;2.00;;;34.00;51.40;;;;;;5052255;28;20516;-80
2023/08/15 06:29:13;;;;;;;3.55;2.10;;;34.40;48.10;;;;;;5050965;28;20499;-80
2023/08/15 06:31:38;;;;;;;6.18;1.75;;;34.40;47.70;;;;;;5052154;28;20541;-79
2023/08/15 06:34:04;;;;;;;5.93;1.75;;;34.60;46.70;;;;;;5052112;28;20452;-80
2023/08/15 06:36:31;;;;;;;4.72;1.77;;;35.10;45.70;;;;;;5052246;28;20436;-80
2023/08/15 06:38:57;;;;;;;6.45;1.42;;;35.30;45.70;;;;;;5050750;28;20497;-80
2023/08/15 06:41:22;;;;;;;4.80;1.70;;;35.70;44.40;;;;;;5052251;28;20043;-79
2023/08/15 06:43:48;;;;;;;4.85;2.00;;;36.10;44.20;;;;;;5052144;28;20032;-80
2023/08/15 06:46:14;;;;;;;6.75;1.88;;;36.40;43.00;;;;;;5052148;28;20028;-80
2023/08/15 06:48:40;;;;;;;4.30;2.00;;;36.50;42.20;;;;;;5051865;28;20429;-80
2023/08/15 06:51:06;;;;;;;4.95;1.92;;;36.70;40.70;;;;;;5052027;28;20083;-80
2023/08/15 06:53:31;;;;;;;5.68;1.90;;;36.60;39.80;;;;;;5052053;28;20096;-81
2023/08/15 06:55:57;;;;;;;4.65;2.00;;;36.50;40.40;;;;;;5050544;28;20029;-80
2023/08/15 06:58:23;;;;;;;5.03;2.10;;;36.60;41.20;;;;;;5051887;28;20039;-80
2023/08/15 07:00:49;;;;;;;4.88;1.80;;;36.30;40.50;;;;;;5052318;28;20064;-80
2023/08/15 07:03:15;;;;;;;5.78;1.40;;;36.50;40.70;;;;;;5051943;28;20485;-79
2023/08/15 07:05:42;;;;;;;5.38;1.73;;;36.30;39.50;;;;;;5051549;28;20032;-80
2023/08/15 07:08:07;;;;;;;5.78;1.73;;;36.00;38.80;;;;;;5050229;28;20021;-80
2023/08/15 07:10:35;;;;;;;2.72;1.27;;;36.00;39.70;;;;;;5051770;28;20075;-79
2023/08/15 07:13:01;;;;;;;3.83;1.73;;;35.90;39.50;;;;;;5051616;28;20137;-80
2023/08/15 07:15:27;;;;;;;4.55;1.80;;;35.70;41.10;;;;;;5050515;28;20623;-80
2023/08/15 07:17:52;;;;;;;8.82;1.45;;;35.90;40.50;;;;;;5050933;28;20094;-80
2023/08/15 07:20:19;;;;;;;3.28;1.55;;;35.80;39.50;;;;;;5051288;28;20040;-80
2023/08/15 07:22:45;;;;;;;3.33;1.65;;;35.60;39.90;;;;;;5050238;28;20036;-80
2023/08/15 07:25:11;;;;;;;5.10;2.20;;;35.70;40.20;;;;;;5051421;28;20029;-80
2023/08/15 07:27:37;;;;;;;3.20;1.90;;;36.00;40.50;;;;;;5051238;28;20029;-79
2023/08/15 07:30:05;;;;;;;3.17;1.58;;;36.10;38.50;;;;;;5051242;28;20040;-80
2023/08/15 07:32:33;;;;;;;5.95;1.63;;;36.20;38.90;;;;;;5051319;28;20502;-80
2023/08/15 07:35:00;;;;;;;5.53;2.10;;;36.50;38.80;;;;;;5051118;28;20029;-80
2023/08/15 07:37:26;;;;;;;3.45;2.05;;;36.40;39.30;;;;;;5051114;28;20105;-80
2023/08/15 07:40:05;;;;;;;10.05;1.90;;;36.40;38.00;;;;;;5050969;28;20112;-80
2023/08/15 07:42:31;;;;;;;7.85;1.60;;;36.30;38.60;;;;;;5049717;28;20033;-79
2023/08/15 07:44:57;;;;;;;5.22;2.05;;;36.40;38.30;;;;;;5051035;28;20025;-80
2023/08/15 07:47:22;;;;;;;3.08;1.88;;;36.60;38.30;;;;;;5050897;28;20029;-80
2023/08/15 07:49:48;;;;;;;9.57;1.77;;;36.50;37.50;;;;;;5050861;28;20064;-80
2023/08/15 07:52:14;;;;;;;7.50;2.20;;;36.60;37.40;;;;;;5051018;28;20028;-81
2023/08/15 07:54:42;;;;;;;7.80;2.47;;;36.50;38.00;;;;;;5049527;28;20115;-80
2023/08/15 07:57:08;;;;;;;6.20;3.85;;;36.70;37.70;;;;;;5049534;28;20036;-80
2023/08/15 07:59:34;;;;;;;5.35;2.28;;;37.10;36.20;;;;;;5050659;28;20036;-79
2023/08/15 08:01:59;;;;;;;7.25;2.13;;;37.00;35.30;;;;;;5051072;28;20072;-79
2023/08/15 08:04:25;;;;;;;5.10;1.80;;;37.00;36.60;;;;;;5049291;28;20120;-80
2023/08/15 08:06:50;;;;;;;10.63;2.63;;;37.20;36.60;;;;;;5049276;28;20573;-80
2023/08/15 08:09:16;;;;;;;3.75;2.13;;;36.90;35.40;;;;;;5049236;28;20035;-79
2023/08/15 08:11:42;;;;;;;8.48;1.80;;;37.00;34.90;;;;;;5049155;28;20189;-80
2023/08/15 08:14:08;;;;;;;5.57;1.52;;;36.90;34.70;;;;;;5048954;28;20048;-80
2023/08/15 08:16:33;;;;;;;3.47;1.40;;;36.50;35.40;;;;;;5049008;28;20033;-80
2023/08/15 08:18:59;;;;;;;9.75;1.70;;;36.70;35.30;;;;;;5050380;28;20025;-80
2023/08/15 08:21:25;;;;;;;4.82;1.42;;;36.90;34.80;;;;;;5050263;28;20044;-80
2023/08/15 08:23:51;;;;;;;5.00;1.48;;;36.90;34.20;;;;;;5050394;28;20032;-80
2023/08/15 08:26:16;;;;;;;2.80;1.20;;;37.00;33.80;;;;;;5050128;28;20045;-80
2023/08/15 08:28:42;;;;;;;2.45;1.20;;;37.10;33.10;;;;;;5049252;28;20556;-79
2023/08/15 08:31:07;;;;;;;3.55;1.45;;;37.10;33.00;;;;;;5050064;28;20497;-79
2023/08/15 08:33:33;;;;;;;1.63;1.10;;;37.30;33.40;;;;;;5049994;28;20383;-81
2023/08/15 08:35:59;;;;;;;4.55;1.40;;;37.50;33.00;;;;;;5048876;28;20123;-80
2023/08/15 08:38:25;;;;;;;3.85;1.50;;;37.60;33.80;;;;;;5050446;28;20460;-79
2023/08/15 08:40:53;;;;;;;5.22;1.67;;;38.00;33.20;;;;;;5048930;28;20461;-80
2023/08/15 08:43:19;;;;;;;3.15;1.20;;;37.80;32.10;;;;;;5049884;28;20025;-80
2023/08/15 08:45:50;;;;;;;8.18;1.30;;;37.60;31.90;;;;;;5048582;28;20021;-80
2023/08/15 08:48:17;;;;;;;11.70;1.50;;;37.40;32.10;;;;;;5049867;28;20497;-80
2023/08/15 08:50:44;;;;;;;4.93;1.38;;;37.30;32.20;;;;;;5049734;28;20029;-80
2023/08/15 08:53:10;;;;;;;4.68;1.60;;;37.20;33.40;;;;;;5048439;28;20167;-79
2023/08/15 08:55:38;;;;;;;2.63;1.45;;;37.60;32.90;;;;;;5049714;28;20100;-80
2023/08/15 08:58:05;;;;;;;4.38;1.50;;;37.70;33.30;;;;;;5049699;28;20029;-80
2023/08/15 09:00:32;;;;;;;7.93;1.10;;;38.00;32.40;;;;;;5049338;28;20390;-80
2023/08/15 09:02:58;;;;;;;2.78;1.15;;;38.00;30.40;;;;;;5049607;28;20021;-80
2023/08/15 09:05:24;;;;;;;4.43;1.23;;;37.90;29.80;;;;;;5049608;28;20036;-80
2023/08/15 09:07:51;;;;;;;2.25;1.15;;;38.00;30.10;;;;;;5048226;28;20025;-80
2023/08/15 09:10:16;;;;;;;2.03;1.20;;;38.00;30.00;;;;;;5048350;28;20079;-80
2023/08/15 09:12:45;;;;;;;3.42;1.80;;;38.10;31.00;;;;;;5049261;28;20048;-80
2023/08/15 09:15:11;;;;;;;1.60;1.00;;;38.10;31.00;;;;;;5049403;28;20033;-80
2023/08/15 09:17:41;;;;;;;3.50;1.30;;;37.70;31.80;;;;;;5049436;28;20040;-79
2023/08/15 09:20:14;;;;;;;6.35;1.90;;;37.60;32.00;;;;;;5049380;28;20037;-80
2023/08/15 09:22:45;;;;;;;9.82;1.60;;;37.70;32.90;;;;;;5049364;28;20035;-80
2023/08/15 09:25:15;;;;;;;3.80;1.73;;;37.70;33.80;;;;;;5048091;28;20029;-80
2023/08/15 09:27:41;;;;;;;7.25;1.33;;;37.60;33.10;;;;;;5049308;28;20025;-80
2023/08/15 09:30:19;;;;;;;3.60;1.52;;;37.80;33.70;;;;;;5048038;28;20479;-80
2023/08/15 09:32:46;;;;;;;4.57;1.30;;;37.70;33.30;;;;;;5047951;28;20086;-79
2023/08/15 09:35:13;;;;;;;6.85;3.08;;;37.70;33.70;;;;;;5049334;28;20014;-80
2023/08/15 09:37:46;;;;;;;5.78;1.80;;;37.90;33.00;;;;;;5049133;28;20071;-80
2023/08/15 09:40:22;;;;;;;6.22;1.85;;;37.90;33.70;;;;;;5050495;28;20115;-79
2023/08/15 09:42:48;;;;;;;4.85;1.63;;;38.10;33.60;;;;;;5053366;28;20053;-80
2023/08/15 09:45:15;;;;;;;7.53;1.70;;;38.30;33.00;;;;;;5053238;28;20067;-80
2023/08/15 09:47:41;;;;;;;4.00;1.67;;;38.00;32.90;;;;;;5053179;28;20022;-80
2023/08/15 09:50:09;;;;;;;5.97;1.67;;;37.90;32.70;;;;;;5053086;28;20029;-80
2023/08/15 09:52:42;;;;;;;4.90;1.60;;;38.10;31.70;;;;;;5052942;28;20096;-81
2023/08/15 09:55:10;;;;;;;3.35;1.67;;;38.20;33.80;;;;;;5051607;28;20120;-80
2023/08/15 09:57:37;;;;;;;5.30;1.50;;;37.90;32.50;;;;;;5053117;28;20031;-79
2023/08/15 10:00:05;;;;;;;4.65;1.42;;;37.90;32.40;;;;;;5052807;28;20040;-81
2023/08/15 10:02:33;;;;;;;7.05;1.65;;;38.00;32.60;;;;;;5052964;28;20079;-80
2023/08/15 10:05:02;;;;;;;4.50;1.65;;;37.80;31.60;;;;;;5051536;28;20033;-80
2023/08/15 10:07:32;;;;;;;10.48;1.60;;;37.60;32.70;;;;;;5051406;28;20025;-79
2023/08/15 10:10:03;;;;;;;3.60;1.73;;;37.50;32.70;;;;;;5051392;28;20536;-80
2023/08/15 10:12:30;;;;;;;3.38;1.35;;;37.30;33.80;;;;;;5052672;28;20037;-80
2023/08/15 10:14:58;;;;;;;7.90;1.63;;;37.20;34.40;;;;;;5052043;28;20591;-80
2023/08/15 10:17:29;;;;;;;5.72;1.70;;;37.10;34.00;;;;;;5052993;28;20032;-80
2023/08/15 10:20:00;;;;;;;7.80;2.05;;;36.60;35.90;;;;;;5052611;28;20037;-79
2023/08/15 10:22:26;;;;;;;9.57;1.70;;;36.10;37.10;;;;;;5051333;28;20180;-80
2023/08/15 10:24:52;;;;;;;3.58;2.10;;;35.70;38.20;;;;;;5051367;28;20131;-80
2023/08/15 10:27:20;;;;;;;8.63;2.40;;;35.30;37.80;;;;;;5052359;28;20087;-79
2023/08/15 10:29:58;;;;;;;8.13;2.88;;;35.00;39.10;;;;;;5051118;28;20810;-79
2023/08/15 10:32:28;;;;;;;6.95;2.75;;;35.00;40.40;;;;;;5052484;28;20025;-79
2023/08/15 10:35:05;;;;;;;14.02;2.63;;;34.40;40.20;;;;;;5052475;28;20059;-80
2023/08/15 10:37:36;;;;;;;6.60;2.35;;;34.10;41.60;;;;;;5052270;28;20056;-79
2023/08/15 10:40:11;;;;;;;7.03;2.13;;;34.00;42.20;;;;;;5052202;28;20059;-79
2023/08/15 10:43:01;;;;;;;6.57;2.63;;;33.90;41.50;;;;;;5052158;28;20104;-80
2023/08/15 10:45:31;;;;;;;6.85;2.42;;;33.60;42.10;;;;;;5052237;28;20025;-79
2023/08/15 10:47:57;;;;;;;4.93;2.45;;;33.40;43.20;;;;;;5051989;28;20078;-80
2023/08/15 10:50:23;;;;;;;12.07;2.40;;;32.90;43.50;;;;;;5050610;28;20124;-78
2023/08/15 10:53:04;;;;;;;8.50;2.40;;;32.90;44.20;;;;;;5051049;28;20039;-79
2023/08/15 10:58:21;;;;;;;5.53;2.42;;;32.80;44.30;;;;;;5052205;28;20024;-80
2023/08/15 11:00:49;;;;;;;6.15;2.72;;;32.90;44.40;;;;;;5050643;28;20048;-78
2023/08/15 11:03:15;;;;;;;9.40;2.60;;;32.90;43.40;;;;;;5050452;28;20031;-79
2023/08/15 11:05:42;;;;;;;7.57;2.20;;;32.80;41.80;;;;;;5051910;28;20029;-80
2023/08/15 11:08:12;;;;;;;5.80;2.17;;;32.70;44.00;;;;;;5051757;28;20509;-80
2023/08/15 11:10:48;;;;;;;7.93;2.08;;;32.60;45.10;;;;;;5051621;28;20047;-79
2023/08/15 11:13:15;;;;;;;6.05;1.70;;;32.40;45.70;;;;;;5051473;28;20040;-80
2023/08/15 11:15:42;;;;;;;2.75;1.92;;;32.40;45.30;;;;;;5050410;28;20029;-80
2023/08/15 11:18:08;;;;;;;7.15;2.30;;;32.40;45.10;;;;;;5051529;28;20029;-79
2023/08/15 11:20:34;;;;;;;7.50;2.00;;;32.40;43.10;;;;;;5049993;28;20554;-81
2023/08/15 11:22:59;;;;;;;4.22;2.20;;;32.40;44.20;;;;;;5051521;28;20033;-80
2023/08/15 11:25:25;;;;;;;4.00;1.67;;;32.40;45.90;;;;;;5051521;28;20146;-80
2023/08/15 11:27:51;;;;;;;4.43;2.00;;;32.30;44.70;;;;;;5051596;28;20089;-79
2023/08/15 11:30:20;;;;;;;3.42;1.75;;;32.40;43.40;;;;;;5050396;28;20026;-80
2023/08/15 11:32:46;;;;;;;5.13;2.17;;;32.50;43.20;;;;;;5051397;28;20028;-80
2023/08/15 11:35:12;;;;;;;4.65;2.00;;;32.50;42.50;;;;;;5051110;28;20032;-79
2023/08/15 11:37:40;;;;;;;3.75;2.15;;;32.40;41.30;;;;;;5051161;28;20036;-79
2023/08/15 11:40:06;;;;;;;3.53;1.55;;;32.30;41.00;;;;;;5049829;28;20115;-79
2023/08/15 11:42:34;;;;;;;3.65;1.90;;;32.30;41.60;;;;;;5049680;28;20064;-79
2023/08/15 11:45:08;;;;;;;6.22;2.05;;;32.30;42.70;;;;;;5051092;28;20103;-79
2023/08/15 11:47:34;;;;;;;9.50;1.90;;;32.30;43.60;;;;;;5051085;28;20025;-80
2023/08/15 11:50:09;;;;;;;6.65;2.30;;;32.30;43.00;;;;;;5051142;28;20032;-80
2023/08/15 11:52:46;;;;;;;9.82;2.28;;;32.30;40.90;;;;;;5049708;28;20115;-80
2023/08/15 11:55:12;;;;;;;7.03;1.90;;;32.30;42.60;;;;;;5050820;28;20090;-80
2023/08/15 11:57:38;;;;;;;6.53;1.83;;;32.30;42.70;;;;;;5050716;28;20036;-80
2023/08/15 12:00:05;;;;;;;4.43;1.80;;;32.40;42.60;;;;;;5050590;28;20025;-80
2023/08/15 12:02:33;;;;;;;4.25;2.00;;;32.40;40.70;;;;;;5049318;28;20505;-79
2023/08/15 12:05:14;;;;;;;9.70;1.95;;;32.30;40.50;;;;;;5049370;28;20017;-80
2023/08/15 12:07:40;;;;;;;13.32;2.60;;;32.30;41.20;;;;;;5050712;28;20025;-80
2023/08/15 12:10:07;;;;;;;4.38;1.75;;;32.30;41.10;;;;;;5050607;28;20106;-79
2023/08/15 12:12:38;;;;;;;3.92;1.70;;;32.30;42.10;;;;;;5050403;28;20429;-80
2023/08/15 12:15:06;;;;;;;5.32;1.70;;;32.30;41.10;;;;;;5050474;28;20032;-80
2023/08/15 12:17:31;;;;;;;5.55;2.35;;;32.20;41.40;;;;;;5050344;28;20552;-79
2023/08/15 12:19:57;;;;;;;6.63;1.95;;;32.20;41.20;;;;;;5050163;28;20051;-80
2023/08/15 12:22:23;;;;;;;8.68;2.15;;;32.20;41.40;;;;;;5049102;28;20528;-79
2023/08/15 12:24:48;;;;;;;12.95;2.38;;;32.20;40.90;;;;;;5049048;28;20039;-79
2023/08/15 12:27:14;;;;;;;3.30;1.63;;;32.10;41.00;;;;;;5050326;28;20516;-80
2023/08/15 12:29:40;;;;;;;11.70;2.40;;;32.00;41.70;;;;;;5050256;28;20110;-79
2023/08/15 12:32:06;;;;;;;5.75;2.17;;;31.90;42.20;;;;;;5050035;28;20079;-80
2023/08/15 12:34:31;;;;;;;7.07;1.92;;;31.90;42.70;;;;;;5049988;28;20053;-80
2023/08/15 12:36:57;;;;;;;8.23;2.53;;;32.00;44.00;;;;;;5049944;28;20037;-80
2023/08/15 12:39:23;;;;;;;5.90;2.40;;;32.00;41.30;;;;;;5049667;28;20459;-80
2023/08/15 12:41:48;;;;;;;9.02;1.95;;;32.00;42.70;;;;;;5049917;28;20056;-80
2023/08/15 12:44:15;;;;;;;5.75;2.90;;;32.00;42.90;;;;;;5048646;28;20035;-80
2023/08/15 12:46:41;;;;;;;7.20;2.17;;;32.00;44.40;;;;;;5049854;28;20048;-79